createdAt,value
2018-06-05T00:00:12.499Z,17.97
2018-06-05T00:02:43.118Z,17.99
2018-06-05T00:05:13.041Z,17.92
2018-06-05T00:07:43.181Z,17.88
2018-06-05T00:10:15.193Z,17.89
2018-06-05T00:12:45.850Z,17.88
2018-06-05T00:15:15.760Z,17.82
2018-06-05T00:17:45.773Z,17.77
2018-06-05T00:20:15.791Z,17.72
2018-06-05T00:22:45.705Z,17.68
2018-06-05T00:28:13.153Z,17.58
2018-06-05T00:30:44.940Z,17.51
2018-06-05T00:33:15.738Z,17.49
2018-06-05T00:35:47.229Z,17.56
2018-06-05T00:38:21.849Z,17.53
2018-06-05T00:40:52.801Z,17.41
2018-06-05T00:43:23.004Z,17.33
2018-06-05T00:45:53.273Z,17.04
2018-06-05T00:48:24.629Z,17.32
2018-06-05T00:50:57.366Z,17.27
2018-06-05T00:53:27.355Z,17.30
2018-06-05T00:55:59.959Z,17.36
2018-06-05T00:59:33.453Z,17.30
2018-06-05T01:02:04.093Z,17.23
2018-06-05T01:04:39.037Z,17.16
2018-06-05T01:07:20.288Z,17.15
2018-06-05T01:10:03.117Z,17.10
2018-06-05T01:12:38.156Z,17.19
2018-06-05T01:15:08.279Z,17.21
2018-06-05T01:17:46.125Z,17.14
2018-06-05T01:20:17.000Z,17.04
2018-06-05T01:22:47.659Z,17.04
2018-06-05T01:25:17.952Z,17.09
2018-06-05T01:28:50.759Z,16.98
2018-06-05T01:34:25.408Z,17.07
2018-06-05T01:36:55.834Z,17.02
2018-06-05T01:39:40.564Z,16.98
2018-06-05T01:42:11.539Z,16.99
2018-06-05T01:44:44.358Z,16.97
2018-06-05T01:47:14.574Z,16.91
2018-06-05T01:49:44.976Z,17.01
2018-06-05T01:52:17.168Z,16.97
2018-06-05T01:54:49.440Z,16.97
2018-06-05T01:57:20.832Z,16.95
2018-06-05T01:59:51.604Z,16.90
2018-06-05T02:02:25.405Z,16.84
2018-06-05T02:04:56.378Z,16.86
2018-06-05T02:07:28.408Z,16.66
2018-06-05T02:09:59.348Z,16.57
2018-06-05T02:12:31.493Z,16.64
2018-06-05T02:15:01.701Z,16.59
2018-06-05T02:17:32.298Z,16.58
2018-06-05T02:20:02.391Z,16.48
2018-06-05T02:22:34.832Z,16.45
2018-06-05T02:25:04.994Z,16.38
2018-06-05T02:27:35.592Z,16.44
2018-06-05T02:33:03.146Z,16.36
2018-06-05T02:35:34.424Z,16.29
2018-06-05T02:40:58.188Z,16.27
2018-06-05T02:43:29.727Z,16.22
2018-06-05T02:45:59.792Z,16.24
2018-06-05T02:48:30.053Z,16.16
2018-06-05T02:51:34.432Z,16.13
2018-06-05T02:54:04.516Z,16.16
2018-06-05T02:56:35.089Z,16.17
2018-06-05T02:59:05.226Z,16.19
2018-06-05T03:01:35.152Z,16.23
2018-06-05T03:04:06.798Z,16.27
2018-06-05T03:06:36.910Z,16.24
2018-06-05T03:09:09.138Z,16.17
2018-06-05T03:11:40.755Z,16.17
2018-06-05T03:14:11.349Z,16.21
2018-06-05T03:16:41.801Z,16.19
2018-06-05T03:19:13.889Z,16.09
2018-06-05T03:21:43.881Z,16.01
2018-06-05T03:24:13.879Z,16.08
2018-06-05T03:28:05.554Z,16.00
2018-06-05T03:33:32.452Z,16.02
2018-06-05T03:36:04.072Z,16.04
2018-06-05T03:38:35.177Z,16.07
2018-06-05T03:41:08.801Z,16.23
2018-06-05T03:43:39.398Z,16.24
2018-06-05T03:49:15.923Z,16.30
2018-06-05T03:52:00.135Z,16.31
2018-06-05T03:54:30.366Z,16.35
2018-06-05T03:59:46.673Z,16.30
2018-06-05T04:05:02.126Z,16.32
2018-06-05T04:08:24.449Z,16.47
2018-06-05T04:13:53.936Z,16.58
2018-06-05T04:16:35.599Z,16.65
2018-06-05T04:19:15.861Z,16.62
2018-06-05T04:21:46.641Z,16.60
2018-06-05T04:24:27.927Z,16.58
2018-06-05T04:27:02.229Z,16.64
2018-06-05T04:29:44.972Z,16.65
2018-06-05T04:34:51.328Z,16.62
2018-06-05T04:37:23.549Z,16.54
2018-06-05T04:39:54.502Z,16.50
2018-06-05T04:42:25.027Z,16.53
2018-06-05T04:44:58.181Z,16.57
2018-06-05T04:47:32.782Z,16.57
2018-06-05T04:50:08.225Z,16.70
2018-06-05T04:52:42.103Z,16.63
2018-06-05T04:55:14.200Z,16.64
2018-06-05T04:57:44.152Z,16.61
2018-06-05T05:00:15.249Z,16.59
2018-06-05T05:02:46.695Z,16.63
2018-06-05T05:05:16.573Z,16.73
2018-06-05T05:07:47.048Z,16.68
2018-06-05T05:10:18.369Z,16.68
2018-06-05T05:12:48.329Z,16.68
2018-06-05T05:15:19.473Z,16.75
2018-06-05T05:17:50.713Z,16.84
2018-06-05T05:20:21.017Z,16.84
2018-06-05T05:22:51.102Z,16.92
2018-06-05T05:25:30.629Z,17.05
2018-06-05T05:28:00.531Z,17.10
2018-06-05T05:30:30.529Z,17.17
2018-06-05T05:33:04.369Z,17.31
2018-06-05T05:35:34.561Z,17.41
2018-06-05T05:38:05.195Z,17.51
2018-06-05T05:40:35.486Z,17.65
2018-06-05T05:43:07.153Z,17.74
2018-06-05T05:45:37.746Z,17.88
2018-06-05T05:50:57.821Z,18.20
2018-06-05T05:53:27.677Z,18.30
2018-06-05T05:55:57.827Z,18.43
2018-06-05T05:58:28.821Z,18.52
2018-06-05T06:00:58.863Z,18.67
2018-06-05T06:03:28.674Z,18.84
2018-06-05T06:05:59.818Z,18.98
2018-06-05T06:08:29.643Z,19.12
2018-06-05T06:11:01.182Z,19.21
2018-06-05T06:13:31.137Z,19.26
2018-06-05T06:16:02.132Z,19.32
2018-06-05T06:18:32.262Z,19.53
2018-06-05T06:29:34.936Z,20.04
2018-06-05T06:34:43.442Z,20.41
2018-06-05T06:37:22.137Z,20.69
2018-06-05T06:39:52.869Z,20.82
2018-06-05T06:42:23.703Z,20.95
2018-06-05T06:44:55.324Z,21.12
2018-06-05T06:47:28.503Z,21.27
2018-06-05T06:49:58.779Z,21.31
2018-06-05T06:52:28.695Z,21.24
2018-06-05T06:54:58.755Z,21.06
2018-06-05T06:57:28.681Z,20.93
2018-06-05T06:59:59.569Z,20.81
2018-06-05T07:02:29.579Z,20.71
2018-06-05T07:05:06.050Z,20.64
2018-06-05T07:07:36.024Z,20.64
2018-06-05T07:10:06.087Z,20.66
2018-06-05T07:12:36.058Z,20.86
2018-06-05T07:17:49.941Z,21.27
2018-06-05T07:20:20.745Z,21.45
2018-06-05T07:25:31.794Z,21.96
2018-06-05T07:28:32.828Z,22.16
2018-06-05T07:33:39.575Z,22.72
2018-06-05T07:41:42.193Z,23.27
2018-06-05T07:44:23.154Z,23.25
2018-06-05T07:46:54.274Z,23.38
2018-06-05T07:49:31.280Z,23.38
2018-06-05T07:52:01.811Z,23.40
2018-06-05T07:54:33.891Z,23.49
2018-06-05T07:59:45.143Z,24.30
2018-06-05T08:02:22.775Z,24.47
2018-06-05T08:04:54.956Z,24.71
2018-06-05T08:07:31.530Z,24.88
2018-06-05T08:10:10.193Z,24.98
2018-06-05T08:12:49.381Z,25.23
2018-06-05T08:15:35.395Z,24.94
2018-06-05T08:18:40.340Z,24.88
2018-06-05T08:21:16.313Z,25.11
2018-06-05T08:27:03.244Z,25.17
2018-06-05T08:29:37.885Z,25.45
2018-06-05T08:32:23.941Z,25.70
2018-06-05T08:34:56.981Z,25.70
2018-06-05T08:40:53.495Z,26.62
2018-06-05T08:43:24.054Z,27.44
2018-06-05T08:45:59.736Z,28.55
2018-06-05T08:48:32.254Z,28.93
2018-06-05T08:51:04.515Z,29.55
2018-06-05T09:00:02.452Z,30.03
2018-06-05T09:02:39.663Z,30.26
2018-06-05T09:05:22.200Z,30.78
2018-06-05T09:10:40.500Z,32.07
2018-06-05T09:13:11.030Z,31.14
2018-06-05T09:15:41.041Z,30.55
2018-06-05T09:30:28.866Z,31.30
2018-06-05T09:33:00.440Z,30.70
2018-06-05T09:35:33.899Z,30.65
2018-06-05T09:38:04.595Z,30.19
2018-06-05T09:40:38.166Z,30.11
2018-06-05T09:43:08.810Z,30.65
2018-06-05T09:45:43.771Z,30.92
2018-06-05T09:48:13.780Z,31.63
2018-06-05T09:50:46.600Z,32.38
2018-06-05T09:53:17.771Z,33.01
2018-06-05T09:55:48.296Z,34.10
2018-06-05T10:14:53.382Z,35.45
2018-06-05T10:17:24.460Z,36.26
2018-06-05T10:23:46.413Z,36.28
2018-06-05T10:26:16.645Z,35.30
2018-06-05T10:28:49.118Z,35.49
2018-06-05T10:31:25.440Z,35.03
2018-06-05T10:33:57.629Z,34.22
2018-06-05T10:36:39.048Z,34.15
2018-06-05T10:39:43.248Z,33.87
2018-06-05T10:42:15.209Z,34.31
2018-06-05T10:44:50.139Z,34.11
2018-06-05T10:47:21.708Z,34.43
2018-06-05T10:52:53.367Z,34.53
2018-06-05T10:55:43.034Z,33.83
2018-06-05T11:00:57.217Z,33.81
2018-06-05T11:03:31.327Z,33.59
2018-06-05T11:06:05.091Z,33.42
2018-06-05T11:08:36.196Z,33.55
2018-06-05T11:11:11.308Z,32.18
2018-06-05T11:13:44.976Z,32.42
2018-06-05T11:16:15.854Z,32.88
2018-06-05T11:18:46.226Z,32.58
2018-06-05T11:21:29.930Z,32.59
2018-06-05T11:24:01.335Z,32.33
2018-06-05T11:29:33.656Z,34.14
2018-06-05T11:32:06.439Z,33.88
2018-06-05T11:34:37.383Z,32.66
2018-06-05T11:37:10.456Z,31.89
2018-06-05T11:39:41.438Z,30.70
2018-06-05T11:42:12.265Z,31.66
2018-06-05T11:44:43.445Z,33.57
2018-06-05T11:47:14.865Z,35.97
2018-06-05T11:50:15.169Z,37.37
2018-06-05T11:52:51.157Z,38.52
2018-06-05T11:55:28.433Z,39.07
2018-06-05T12:04:34.790Z,38.15
2018-06-05T12:07:06.348Z,36.73
2018-06-05T12:09:37.725Z,35.90
2018-06-05T12:12:08.783Z,34.16
2018-06-05T12:14:41.892Z,33.02
2018-06-05T12:17:13.484Z,31.83
2018-06-05T12:19:50.576Z,33.22
2018-06-05T12:22:23.103Z,35.22
2018-06-05T12:24:54.638Z,35.83
2018-06-05T12:27:34.626Z,36.51
2018-06-05T12:30:06.229Z,37.08
2018-06-05T12:32:37.785Z,37.42
2018-06-05T12:35:10.693Z,37.98
2018-06-05T12:37:42.202Z,37.84
2018-06-05T12:40:13.460Z,37.78
2018-06-05T12:42:47.490Z,37.66
2018-06-05T12:45:19.117Z,36.95
2018-06-05T12:47:51.822Z,36.30
2018-06-05T12:50:24.552Z,35.90
2018-06-05T12:52:59.484Z,35.27
2018-06-05T12:55:35.139Z,34.83
2018-06-05T13:03:45.947Z,32.80
2018-06-05T13:06:19.024Z,32.21
2018-06-05T13:11:39.364Z,30.71
2018-06-05T13:14:35.730Z,29.94
2018-06-05T13:17:24.579Z,29.93
2018-06-05T13:19:59.284Z,31.07
2018-06-05T13:22:32.256Z,30.99
2018-06-05T13:25:02.933Z,30.71
2018-06-05T13:27:35.546Z,30.51
2018-06-05T13:30:08.958Z,30.28
2018-06-05T13:32:46.322Z,30.86
2018-06-05T13:35:21.211Z,32.14
2018-06-05T13:38:07.159Z,31.65
2018-06-05T13:40:38.305Z,30.92
2018-06-05T13:43:08.979Z,30.22
2018-06-05T13:45:50.218Z,29.68
2018-06-05T13:48:21.476Z,29.20
2018-06-05T13:50:57.615Z,28.95
2018-06-05T13:53:29.255Z,28.74
2018-06-05T13:55:59.842Z,28.29
2018-06-05T13:58:42.495Z,28.23
2018-06-05T14:01:13.146Z,28.36
2018-06-05T14:03:43.470Z,28.35
2018-06-05T14:06:13.436Z,28.24
2018-06-05T14:08:44.096Z,28.34
2018-06-05T14:11:19.318Z,29.38
2018-06-05T14:13:49.401Z,32.42
2018-06-05T14:16:19.994Z,34.62
2018-06-05T14:18:50.802Z,35.05
2018-06-05T14:21:22.533Z,35.55
2018-06-05T14:23:52.677Z,37.33
2018-06-05T14:26:22.473Z,37.82
2018-06-05T14:28:54.301Z,38.00
2018-06-05T14:31:27.922Z,37.66
2018-06-05T14:33:57.842Z,37.97
2018-06-05T14:36:28.076Z,37.54
2018-06-05T14:38:59.213Z,35.65
2018-06-05T14:41:29.902Z,34.05
2018-06-05T14:44:00.628Z,32.81
2018-06-05T14:46:44.435Z,31.56
2018-06-05T14:49:18.648Z,30.56
2018-06-05T14:51:50.317Z,29.66
2018-06-05T14:54:20.414Z,29.13
2018-06-05T14:56:50.652Z,28.51
2018-06-05T14:59:20.692Z,28.19
2018-06-05T15:01:55.455Z,27.80
2018-06-05T15:04:29.508Z,27.46
2018-06-05T15:07:08.370Z,27.33
2018-06-05T15:09:45.856Z,27.23
2018-06-05T15:12:19.510Z,26.88
2018-06-05T15:14:53.625Z,25.99
2018-06-05T15:17:23.967Z,25.39
2018-06-05T15:19:54.583Z,24.94
2018-06-05T15:22:25.235Z,24.76
2018-06-05T15:24:58.530Z,24.40
2018-06-05T15:27:35.545Z,23.97
2018-06-05T15:30:06.686Z,23.53
2018-06-05T15:32:38.661Z,23.04
2018-06-05T15:35:10.858Z,22.82
2018-06-05T15:37:44.688Z,22.65
2018-06-05T15:40:23.390Z,22.32
2018-06-05T15:42:58.740Z,22.24
2018-06-05T15:45:29.920Z,22.09
2018-06-05T15:48:06.895Z,22.03
2018-06-05T15:50:51.612Z,21.84
2018-06-05T15:53:22.519Z,21.86
2018-06-05T15:55:53.914Z,21.93
2018-06-05T15:58:30.279Z,21.94
2018-06-05T16:01:01.738Z,22.08
2018-06-05T16:03:36.461Z,22.08
2018-06-05T16:06:09.150Z,22.15
2018-06-05T16:08:39.276Z,22.26
2018-06-05T16:11:12.104Z,22.35
2018-06-05T16:13:41.947Z,22.48
2018-06-05T16:16:14.750Z,22.66
2018-06-05T16:18:45.710Z,22.75
2018-06-05T16:21:16.820Z,22.44
2018-06-05T16:23:53.521Z,22.42
2018-06-05T16:26:25.992Z,22.46
2018-06-05T16:28:58.333Z,22.55
2018-06-05T16:31:30.689Z,22.50
2018-06-05T16:34:20.028Z,22.43
2018-06-05T16:36:54.247Z,22.39
2018-06-05T16:39:25.172Z,22.48
2018-06-05T16:41:56.181Z,22.46
2018-06-05T16:44:27.773Z,22.50
2018-06-05T16:46:57.844Z,22.65
2018-06-05T16:49:31.099Z,22.47
2018-06-05T16:52:12.208Z,22.48
2018-06-05T16:54:45.092Z,22.39
2018-06-05T16:57:26.108Z,22.40
2018-06-05T16:59:57.335Z,22.37
2018-06-05T17:02:30.713Z,22.45
2018-06-05T17:05:02.967Z,22.34
2018-06-05T17:10:49.197Z,22.65
2018-06-05T17:13:24.572Z,22.67
2018-06-05T17:15:57.147Z,22.59
2018-06-05T17:18:27.750Z,22.53
2018-06-05T17:21:00.187Z,22.70
2018-06-05T17:23:32.914Z,22.80
2018-06-05T17:26:08.586Z,23.00
2018-06-05T17:28:43.863Z,23.11
2018-06-05T17:31:15.404Z,23.20
2018-06-05T17:33:54.057Z,23.29
2018-06-05T17:36:25.743Z,23.38
2018-06-05T17:38:58.212Z,23.38
2018-06-05T17:41:47.659Z,23.34
2018-06-05T17:44:21.088Z,23.22
2018-06-05T17:46:53.168Z,23.29
2018-06-05T17:49:23.358Z,23.24
2018-06-05T17:51:55.899Z,23.32
2018-06-05T17:54:26.626Z,23.24
2018-06-05T17:56:57.311Z,23.33
2018-06-05T17:59:27.961Z,23.38
2018-06-05T18:02:02.631Z,23.31
2018-06-05T18:04:34.619Z,23.29
2018-06-05T18:07:10.488Z,23.25
2018-06-05T18:12:44.799Z,23.25
2018-06-05T18:15:21.137Z,23.28
2018-06-05T18:18:01.235Z,23.21
2018-06-05T18:20:31.507Z,23.17
2018-06-05T18:23:02.600Z,23.14
2018-06-05T18:28:02.847Z,22.99
2018-06-05T18:33:49.715Z,22.77
2018-06-05T18:36:21.626Z,22.70
2018-06-05T18:38:54.403Z,22.49
2018-06-05T18:41:45.505Z,22.47
2018-06-05T18:44:24.150Z,22.26
2018-06-05T18:46:59.484Z,22.27
2018-06-05T18:49:35.177Z,22.20
2018-06-05T18:52:12.719Z,22.11
2018-06-05T18:54:48.696Z,22.02
2018-06-05T18:57:24.806Z,21.97
2018-06-05T19:00:03.663Z,21.81
2018-06-05T19:02:38.179Z,21.67
2018-06-05T19:05:14.193Z,21.46
2018-06-05T19:07:47.973Z,21.39
2018-06-05T19:10:20.995Z,21.41
2018-06-05T19:12:57.655Z,21.29
2018-06-05T19:15:31.112Z,21.28
2018-06-05T19:18:02.511Z,21.17
2018-06-05T19:23:36.530Z,20.83
2018-06-05T19:26:24.653Z,20.68
2018-06-05T19:29:00.643Z,20.56
2018-06-05T19:31:32.783Z,20.43
2018-06-05T19:34:19.495Z,20.28
2018-06-05T19:36:52.463Z,20.06
2018-06-05T19:39:39.190Z,20.13
2018-06-05T19:42:16.797Z,20.09
2018-06-05T19:44:50.780Z,20.09
2018-06-05T19:47:26.469Z,19.98
2018-06-05T19:49:58.673Z,19.95
2018-06-05T19:52:31.840Z,19.87
2018-06-05T19:55:07.747Z,19.76
2018-06-05T19:57:44.213Z,19.81
2018-06-05T20:00:17.506Z,19.69
2018-06-05T20:02:56.917Z,19.61
2018-06-05T20:06:35.821Z,19.59
2018-06-05T20:09:12.971Z,19.41
2018-06-05T20:11:49.262Z,19.33
2018-06-05T20:14:20.596Z,19.27
2018-06-05T20:17:12.663Z,19.30
2018-06-05T20:19:49.599Z,19.25
2018-06-05T20:22:23.178Z,19.27
2018-06-05T20:25:03.552Z,19.17
2018-06-05T20:27:39.894Z,19.18
2018-06-05T20:30:15.805Z,19.09
2018-06-05T20:32:47.950Z,19.07
2018-06-05T20:35:26.342Z,18.30
2018-06-05T20:37:59.662Z,19.00
2018-06-05T20:40:33.329Z,18.94
2018-06-05T20:57:42.110Z,18.65
2018-06-05T21:00:42.497Z,18.62
2018-06-05T21:03:20.469Z,18.59
2018-06-05T21:05:55.210Z,18.53
2018-06-05T21:08:30.022Z,18.57
2018-06-05T21:11:29.079Z,18.50
2018-06-05T21:17:07.334Z,18.45
2018-06-05T21:20:07.825Z,18.37
2018-06-05T21:22:43.588Z,18.41
2018-06-05T21:25:26.263Z,18.29
2018-06-05T21:27:57.290Z,18.28
2018-06-05T21:30:29.242Z,18.30
2018-06-05T21:33:11.478Z,18.25
2018-06-05T21:36:46.826Z,18.16
2018-06-05T21:39:20.312Z,18.17
2018-06-05T21:42:16.621Z,18.20
2018-06-05T21:49:26.456Z,18.08
2018-06-05T21:52:00.481Z,18.06
2018-06-05T21:54:33.618Z,17.97
2018-06-05T21:57:04.656Z,17.92
2018-06-05T22:06:46.886Z,17.82
2018-06-05T22:09:49.138Z,17.78
2018-06-05T22:12:21.865Z,17.70
2018-06-05T22:14:54.380Z,17.74
2018-06-05T22:17:39.738Z,17.72
2018-06-05T22:28:31.667Z,17.59
2018-06-05T22:31:05.617Z,17.59
2018-06-05T22:33:53.587Z,17.56
2018-06-05T23:39:23.377Z,17.07
2018-06-05T23:41:59.021Z,17.05
2018-06-05T23:44:31.140Z,17.03
2018-06-05T23:47:09.789Z,17.06
2018-06-05T23:49:52.533Z,17.04
2018-06-05T23:52:25.363Z,16.99
2018-06-05T23:55:01.970Z,17.00
2018-06-05T23:57:33.467Z,16.94
